createdAt,value
2022-11-20T00:00:56.140Z,99467.28
2022-11-20T00:01:57.733Z,99472.38
2022-11-20T00:02:59.440Z,99470.56
2022-11-20T00:04:01.280Z,99464.53
2022-11-20T00:05:02.910Z,99472.28
2022-11-20T00:06:10.280Z,99467.97
2022-11-20T00:07:11.896Z,99465.38
2022-11-20T00:08:13.463Z,99472.31
2022-11-20T00:09:15.132Z,99471.47
2022-11-20T00:10:16.941Z,99474.97
2022-11-20T00:11:21.164Z,99473.22
2022-11-20T00:12:22.686Z,99468.81
2022-11-20T00:13:24.340Z,99465.22
2022-11-20T00:14:25.991Z,99477.06
2022-11-20T00:15:27.553Z,99475.22
2022-11-20T00:16:32.040Z,99470.88
2022-11-20T00:17:33.609Z,99473.31
2022-11-20T00:18:36.067Z,99474.16
2022-11-20T00:19:37.594Z,99479.34
2022-11-20T00:20:39.101Z,99477.66
2022-11-20T00:21:40.737Z,99478.31
2022-11-20T00:22:42.345Z,99483.34
2022-11-20T00:23:44.335Z,99485.84
2022-11-20T00:24:45.951Z,99480.66
2022-11-20T00:25:47.677Z,99480.59
2022-11-20T00:26:49.214Z,99483.09
2022-11-20T00:27:51.664Z,99483.91
2022-11-20T00:28:59.836Z,99480.50
2022-11-20T00:30:01.679Z,99493.34
2022-11-20T00:31:12.915Z,99485.53
2022-11-20T00:32:14.558Z,99489.66
2022-11-20T00:33:16.115Z,99486.13
2022-11-20T00:34:17.756Z,99488.72
2022-11-20T00:35:19.309Z,99488.63
2022-11-20T00:36:23.337Z,99490.28
2022-11-20T00:37:24.940Z,99456.13
2022-11-20T00:38:26.451Z,99488.53
2022-11-20T00:39:28.065Z,99491.84
2022-11-20T00:40:29.680Z,99488.28
2022-11-20T00:41:31.617Z,99489.88
2022-11-20T00:42:33.863Z,99488.19
2022-11-20T00:43:35.684Z,99490.75
2022-11-20T00:44:37.276Z,99493.25
2022-11-20T00:45:38.834Z,99491.25
2022-11-20T00:46:40.571Z,99490.41
2022-11-20T00:47:42.102Z,99489.56
2022-11-20T00:48:44.807Z,99482.59
2022-11-20T00:49:46.507Z,99486.13
2022-11-20T00:50:48.086Z,99491.34
2022-11-20T00:51:49.664Z,99488.72
2022-11-20T00:52:51.189Z,99487.00
2022-11-20T00:53:53.127Z,99501.78
2022-11-20T00:54:54.908Z,99486.16
2022-11-20T00:55:58.650Z,99490.56
2022-11-20T00:57:00.237Z,99488.88
2022-11-20T00:58:04.533Z,99491.47
2022-11-20T00:59:06.631Z,99482.75
2022-11-20T01:00:09.136Z,99485.31
2022-11-20T01:01:15.654Z,99487.00
2022-11-20T01:02:17.552Z,99487.13
2022-11-20T01:03:25.583Z,99461.66
2022-11-20T01:04:28.579Z,99485.38
2022-11-20T01:05:35.644Z,99468.38
2022-11-20T01:06:40.415Z,99486.06
2022-11-20T01:07:42.119Z,99490.34
2022-11-20T01:08:44.495Z,99486.00
2022-11-20T01:09:46.175Z,99476.38
2022-11-20T01:10:47.830Z,99478.94
2022-11-20T01:11:49.650Z,99481.47
2022-11-20T01:13:11.317Z,99487.41
2022-11-20T01:14:20.749Z,99477.75
2022-11-20T01:15:22.398Z,99476.91
2022-11-20T01:16:29.482Z,99485.34
2022-11-20T01:17:32.348Z,99481.09
2022-11-20T01:18:34.477Z,99481.03
2022-11-20T01:19:36.090Z,99467.44
2022-11-20T01:20:37.946Z,99473.69
2022-11-20T01:21:41.909Z,99481.31
2022-11-20T01:22:43.426Z,99476.97
2022-11-20T01:23:45.876Z,99487.47
2022-11-20T01:24:47.460Z,99486.69
2022-11-20T01:25:49.175Z,99484.03
2022-11-20T01:26:52.289Z,99480.47
2022-11-20T01:27:53.912Z,99482.06
2022-11-20T01:28:56.998Z,99479.97
2022-11-20T01:30:01.218Z,99478.28
2022-11-20T01:31:15.829Z,99481.72
2022-11-20T01:32:17.611Z,99484.34
2022-11-20T01:33:19.132Z,99485.91
2022-11-20T01:34:23.100Z,99485.84
2022-11-20T01:35:25.081Z,99486.78
2022-11-20T01:36:29.096Z,99490.16
2022-11-20T01:37:30.652Z,99482.47
2022-11-20T01:38:32.382Z,99479.13
2022-11-20T01:39:33.953Z,99480.59
2022-11-20T01:40:35.596Z,99484.09
2022-11-20T01:41:56.082Z,99482.34
2022-11-20T01:43:23.150Z,99480.59
2022-11-20T01:44:48.871Z,99476.13
2022-11-20T01:46:05.509Z,99476.19
2022-11-20T01:47:08.542Z,99475.41
2022-11-20T01:48:10.127Z,99479.63
2022-11-20T01:49:23.311Z,99489.19
2022-11-20T01:50:29.837Z,99485.75
2022-11-20T01:52:00.498Z,99478.03
2022-11-20T01:53:08.634Z,99486.63
2022-11-20T01:54:16.423Z,99485.75
2022-11-20T01:55:26.931Z,99485.75
2022-11-20T01:56:33.112Z,99479.75
2022-11-20T01:57:36.720Z,99486.63
2022-11-20T01:58:43.816Z,99481.31
2022-11-20T01:59:52.997Z,99479.63
2022-11-20T02:00:54.718Z,99474.41
2022-11-20T02:01:56.839Z,99474.47
2022-11-20T02:03:01.837Z,99478.72
2022-11-20T02:04:03.827Z,99483.13
2022-11-20T02:05:15.994Z,99480.59
2022-11-20T02:06:23.940Z,99482.47
2022-11-20T02:07:25.666Z,99474.72
2022-11-20T02:08:27.342Z,99479.91
2022-11-20T02:09:29.588Z,99471.50
2022-11-20T02:10:31.821Z,99476.56
2022-11-20T02:11:33.457Z,99485.16
2022-11-20T02:12:53.702Z,99477.34
2022-11-20T02:13:56.830Z,99471.34
2022-11-20T02:14:58.800Z,99475.72
2022-11-20T02:16:00.924Z,99471.69
2022-11-20T02:17:02.524Z,99467.41
2022-11-20T02:18:05.005Z,99470.13
2022-11-20T02:19:15.852Z,99470.13
2022-11-20T02:20:17.858Z,99458.84
2022-11-20T02:21:39.923Z,99464.00
2022-11-20T02:23:18.776Z,99463.09
2022-11-20T02:24:22.195Z,99464.91
2022-11-20T02:25:25.900Z,99454.03
2022-11-20T02:26:29.946Z,99473.16
2022-11-20T02:27:31.609Z,99467.22
2022-11-20T02:28:33.366Z,99462.13
2022-11-20T02:29:40.438Z,99464.66
2022-11-20T02:30:42.023Z,99482.22
2022-11-20T02:31:44.710Z,99472.75
2022-11-20T02:32:46.390Z,99465.91
2022-11-20T02:33:48.157Z,99468.59
2022-11-20T02:34:49.887Z,99470.47
2022-11-20T02:35:51.600Z,99461.13
2022-11-20T02:36:54.081Z,99473.75
2022-11-20T02:37:59.091Z,99462.59
2022-11-20T02:39:00.955Z,99479.59
2022-11-20T02:40:02.590Z,99467.38
2022-11-20T02:41:04.539Z,99468.22
2022-11-20T02:42:06.269Z,99467.38
2022-11-20T02:43:08.713Z,99463.13
2022-11-20T02:44:10.327Z,99457.41
2022-11-20T02:45:12.059Z,99463.50
2022-11-20T02:46:13.698Z,99467.75
2022-11-20T02:47:15.297Z,99471.91
2022-11-20T02:48:16.996Z,99469.28
2022-11-20T02:49:18.797Z,99471.84
2022-11-20T02:50:21.086Z,99465.84
2022-11-20T02:51:22.796Z,99465.91
2022-11-20T02:52:24.830Z,99469.41
2022-11-20T02:53:26.419Z,99462.19
2022-11-20T02:54:28.410Z,99464.81
2022-11-20T02:55:30.042Z,99477.09
2022-11-20T02:56:32.842Z,99468.34
2022-11-20T02:57:34.584Z,99469.19
2022-11-20T02:58:36.138Z,99465.78
2022-11-20T02:59:37.656Z,99471.91
2022-11-20T03:00:39.143Z,99476.19
2022-11-20T03:01:40.847Z,99471.81
2022-11-20T03:02:42.555Z,99473.31
2022-11-20T03:03:44.136Z,99468.97
2022-11-20T03:04:45.870Z,99474.09
2022-11-20T03:05:47.477Z,99475.81
2022-11-20T03:06:49.037Z,99468.97
2022-11-20T03:07:50.692Z,99466.25
2022-11-20T03:08:52.303Z,99475.75
2022-11-20T03:09:53.947Z,99470.44
2022-11-20T03:10:55.675Z,99467.00
2022-11-20T03:11:57.473Z,99470.50
2022-11-20T03:12:59.026Z,99472.09
2022-11-20T03:14:04.543Z,99479.03
2022-11-20T03:15:06.610Z,99469.53
2022-11-20T03:16:19.291Z,99476.44
2022-11-20T03:17:20.884Z,99492.94
2022-11-20T03:18:22.466Z,99474.47
2022-11-20T03:19:24.271Z,99477.81
2022-11-20T03:20:26.024Z,99476.91
2022-11-20T03:21:27.675Z,99468.41
2022-11-20T03:22:32.135Z,99476.03
2022-11-20T03:23:34.770Z,99461.63
2022-11-20T03:24:36.474Z,99456.69
2022-11-20T03:25:38.084Z,99476.03
2022-11-20T03:26:40.001Z,99477.75
2022-11-20T03:27:41.606Z,99474.28
2022-11-20T03:28:48.315Z,99477.75
2022-11-20T03:29:49.919Z,99474.97
2022-11-20T03:30:51.473Z,99468.88
2022-11-20T03:31:53.025Z,99476.69
2022-11-20T03:32:55.454Z,99470.72
2022-11-20T03:33:58.815Z,99468.13
2022-11-20T03:35:00.343Z,99472.47
2022-11-20T03:36:03.984Z,99476.88
2022-11-20T03:37:05.522Z,99469.88
2022-11-20T03:38:07.159Z,99476.88
2022-11-20T03:39:09.253Z,99474.13
2022-11-20T03:40:11.009Z,99475.78
2022-11-20T03:41:18.316Z,99457.66
2022-11-20T03:42:38.364Z,99471.25
2022-11-20T03:43:41.253Z,99467.00
2022-11-20T03:44:42.797Z,99462.66
2022-11-20T03:45:44.483Z,99465.28
2022-11-20T03:46:46.100Z,99467.97
2022-11-20T03:47:47.771Z,99466.13
2022-11-20T03:48:51.990Z,99479.84
2022-11-20T03:49:54.614Z,99471.19
2022-11-20T03:51:17.676Z,99472.03
2022-11-20T03:52:19.246Z,99470.31
2022-11-20T03:53:21.146Z,99465.25
2022-11-20T03:54:22.756Z,99470.31
2022-11-20T03:55:24.397Z,99466.91
2022-11-20T03:56:28.807Z,99461.72
2022-11-20T03:57:30.358Z,99466.94
2022-11-20T03:58:32.325Z,99468.59
2022-11-20T03:59:33.910Z,99469.44
2022-11-20T04:00:36.193Z,99471.19
2022-11-20T04:01:45.428Z,99467.72
2022-11-20T04:02:49.835Z,99472.72
2022-11-20T04:03:53.635Z,99470.19
2022-11-20T04:04:55.278Z,99464.13
2022-11-20T04:06:01.773Z,99472.66
2022-11-20T04:07:04.030Z,99453.81
2022-11-20T04:08:06.100Z,99477.00
2022-11-20T04:09:07.879Z,99463.22
2022-11-20T04:10:09.699Z,99469.28
2022-11-20T04:11:19.952Z,99467.53
2022-11-20T04:12:21.520Z,99466.78
2022-11-20T04:13:23.161Z,99455.63
2022-11-20T04:14:24.844Z,99468.53
2022-11-20T04:15:26.492Z,99468.66
2022-11-20T04:16:32.224Z,99466.13
2022-11-20T04:17:33.764Z,99479.13
2022-11-20T04:18:35.726Z,99465.25
2022-11-20T04:19:37.360Z,99473.84
2022-11-20T04:20:38.872Z,99466.91
2022-11-20T04:21:40.632Z,99464.31
2022-11-20T04:22:42.323Z,99465.97
2022-11-20T04:23:43.931Z,99459.91
2022-11-20T04:24:45.557Z,99465.94
2022-11-20T04:25:47.100Z,99457.28
2022-11-20T04:26:48.700Z,99452.09
2022-11-20T04:27:50.264Z,99448.84
2022-11-20T04:28:51.911Z,99449.50
2022-11-20T04:29:53.462Z,99459.97
2022-11-20T04:30:55.133Z,99462.66
2022-11-20T04:31:56.760Z,99462.53
2022-11-20T04:32:58.428Z,99456.59
2022-11-20T04:34:04.367Z,99452.19
2022-11-20T04:35:06.227Z,99444.47
2022-11-20T04:36:14.309Z,99449.69
2022-11-20T04:37:15.951Z,99462.75
2022-11-20T04:38:17.573Z,99451.66
2022-11-20T04:39:19.318Z,99456.16
2022-11-20T04:40:21.088Z,99456.31
2022-11-20T04:41:24.719Z,99448.59
2022-11-20T04:42:32.170Z,99455.69
2022-11-20T04:43:34.579Z,99453.09
2022-11-20T04:44:36.225Z,99453.97
2022-11-20T04:45:37.939Z,99452.34
2022-11-20T04:46:41.973Z,99454.16
2022-11-20T04:47:43.504Z,99461.16
2022-11-20T04:48:45.565Z,99456.06
2022-11-20T04:49:47.364Z,99450.84
2022-11-20T04:50:49.056Z,99454.22
2022-11-20T04:51:54.493Z,99446.50
2022-11-20T04:52:56.030Z,99451.59
2022-11-20T04:53:57.608Z,99451.66
2022-11-20T04:54:59.208Z,99461.31
2022-11-20T04:56:12.371Z,99463.00
2022-11-20T04:57:14.913Z,99451.66
2022-11-20T04:58:17.153Z,99451.78
2022-11-20T04:59:18.877Z,99456.06
2022-11-20T05:00:20.722Z,99462.28
2022-11-20T05:01:24.951Z,99459.00
2022-11-20T05:02:26.920Z,99454.81
2022-11-20T05:03:28.438Z,99456.63
2022-11-20T05:04:30.054Z,99456.66
2022-11-20T05:05:31.691Z,99459.38
2022-11-20T05:06:33.675Z,99453.47
2022-11-20T05:07:35.522Z,99454.44
2022-11-20T05:08:37.250Z,99450.09
2022-11-20T05:09:38.879Z,99459.72
2022-11-20T05:10:40.518Z,99446.06
2022-11-20T05:11:42.411Z,99448.66
2022-11-20T05:12:44.130Z,99457.25
2022-11-20T05:13:46.031Z,99446.16
2022-11-20T05:14:48.014Z,99444.50
2022-11-20T05:15:49.541Z,99455.06
2022-11-20T05:16:51.271Z,99443.00
2022-11-20T05:17:53.928Z,99445.63
2022-11-20T05:18:55.951Z,99448.28
2022-11-20T05:19:57.568Z,99443.97
2022-11-20T05:20:59.809Z,99445.72
2022-11-20T05:22:01.626Z,99446.66
2022-11-20T05:23:03.295Z,99441.53
2022-11-20T05:24:05.775Z,99439.06
2022-11-20T05:25:07.691Z,99436.56
2022-11-20T05:26:14.892Z,99436.69
2022-11-20T05:27:16.915Z,99444.44
2022-11-20T05:28:18.513Z,99441.03
2022-11-20T05:29:20.416Z,99433.34
2022-11-20T05:30:22.357Z,99407.81
2022-11-20T05:31:28.104Z,99437.66
2022-11-20T05:32:30.021Z,99437.66
2022-11-20T05:33:31.635Z,99429.34
2022-11-20T05:34:33.232Z,99440.97
2022-11-20T05:35:34.846Z,99437.50
2022-11-20T05:36:36.476Z,99438.28
2022-11-20T05:37:38.107Z,99417.03
2022-11-20T05:38:40.514Z,99434.81
2022-11-20T05:39:42.109Z,99433.09
2022-11-20T05:40:43.757Z,99433.97
2022-11-20T05:41:45.445Z,99435.78
2022-11-20T05:42:47.665Z,99440.97
2022-11-20T05:43:50.801Z,99430.63
2022-11-20T05:44:52.347Z,99435.78
2022-11-20T05:45:56.019Z,99435.75
2022-11-20T05:46:57.554Z,99443.25
2022-11-20T05:48:01.073Z,99438.84
2022-11-20T05:49:02.663Z,99426.72
2022-11-20T05:50:04.738Z,99430.19
2022-11-20T05:51:08.935Z,99439.72
2022-11-20T05:52:10.603Z,99425.78
2022-11-20T05:53:12.278Z,99433.66
2022-11-20T05:54:14.360Z,99427.34
2022-11-20T05:55:16.133Z,99440.84
2022-11-20T05:56:19.847Z,99429.75
2022-11-20T05:57:21.587Z,99427.25
2022-11-20T05:58:23.279Z,99425.66
2022-11-20T05:59:25.000Z,99436.16
2022-11-20T06:00:26.670Z,99433.56
2022-11-20T06:01:28.343Z,99432.69
2022-11-20T06:02:30.080Z,99430.97
2022-11-20T06:03:31.661Z,99427.56
2022-11-20T06:04:33.301Z,99434.47
2022-11-20T06:05:34.883Z,99433.47
2022-11-20T06:06:36.470Z,99428.97
2022-11-20T06:07:38.116Z,99435.94
2022-11-20T06:08:40.023Z,99441.28
2022-11-20T06:09:41.730Z,99434.34
2022-11-20T06:10:43.271Z,99428.06
2022-11-20T06:11:45.018Z,99439.16
2022-11-20T06:12:46.717Z,99428.75
2022-11-20T06:13:49.632Z,99432.91
2022-11-20T06:14:51.250Z,99437.13
2022-11-20T06:15:54.041Z,99442.31
2022-11-20T06:16:55.883Z,99425.03
2022-11-20T06:17:57.412Z,99432.84
2022-11-20T06:18:59.045Z,99432.84
2022-11-20T06:20:00.754Z,99430.13
2022-11-20T06:21:05.633Z,99437.66
2022-11-20T06:22:07.266Z,99438.50
2022-11-20T06:23:08.957Z,99436.84
2022-11-20T06:24:12.123Z,99441.19
2022-11-20T06:25:14.498Z,99430.38
2022-11-20T06:26:19.416Z,99432.09
2022-11-20T06:27:20.982Z,99434.72
2022-11-20T06:28:23.051Z,99428.69
2022-11-20T06:29:26.804Z,99435.41
2022-11-20T06:30:31.634Z,99424.84
2022-11-20T06:31:38.597Z,99435.03
2022-11-20T06:32:40.396Z,99431.63
2022-11-20T06:33:42.794Z,99440.41
2022-11-20T06:34:44.798Z,99442.34
2022-11-20T06:35:46.395Z,99440.69
2022-11-20T06:36:48.265Z,99441.53
2022-11-20T06:37:49.857Z,99458.78
2022-11-20T06:38:51.662Z,99442.59
2022-11-20T06:39:53.397Z,99453.06
2022-11-20T06:40:55.650Z,99461.13
2022-11-20T06:41:59.238Z,99461.34
2022-11-20T06:43:01.189Z,99456.34
2022-11-20T06:44:05.472Z,99457.34
2022-11-20T06:45:07.833Z,99454.91
2022-11-20T06:46:12.166Z,99455.84
2022-11-20T06:47:13.969Z,99455.06
2022-11-20T06:48:15.606Z,99458.78
2022-11-20T06:49:17.314Z,99471.03
2022-11-20T06:50:19.464Z,99462.47
2022-11-20T06:51:22.343Z,99460.88
2022-11-20T06:52:23.883Z,99457.50
2022-11-20T06:53:25.927Z,99465.47
2022-11-20T06:54:27.744Z,99456.06
2022-11-20T06:55:29.599Z,99444.03
2022-11-20T06:56:31.334Z,99458.88
2022-11-20T06:57:33.194Z,99449.31
2022-11-20T06:58:36.274Z,99463.28
2022-11-20T06:59:37.947Z,99447.69
2022-11-20T07:00:39.661Z,99453.78
2022-11-20T07:01:41.396Z,99453.69
2022-11-20T07:02:42.961Z,99454.50
2022-11-20T07:03:45.206Z,99460.63
2022-11-20T07:04:46.882Z,99455.50
2022-11-20T07:05:48.451Z,99465.91
2022-11-20T07:06:50.069Z,99454.72
2022-11-20T07:07:51.688Z,99448.09
2022-11-20T07:08:54.143Z,99448.66
2022-11-20T07:09:55.727Z,99461.66
2022-11-20T07:11:06.533Z,99461.66
2022-11-20T07:12:08.163Z,99460.97
2022-11-20T07:13:09.839Z,99463.63
2022-11-20T07:14:11.699Z,99466.28
2022-11-20T07:15:13.432Z,99460.13
2022-11-20T07:16:15.231Z,99469.66
2022-11-20T07:17:16.877Z,99476.53
2022-11-20T07:18:18.489Z,99468.66
2022-11-20T07:19:20.763Z,99469.56
2022-11-20T07:20:22.633Z,99479.91
2022-11-20T07:21:24.275Z,99476.50
2022-11-20T07:22:25.993Z,99469.47
2022-11-20T07:23:27.650Z,99466.78
2022-11-20T07:24:29.199Z,99475.44
2022-11-20T07:25:31.566Z,99470.97
2022-11-20T07:26:33.115Z,99481.47
2022-11-20T07:27:35.221Z,99481.50
2022-11-20T07:28:37.990Z,99477.16
2022-11-20T07:29:39.844Z,99476.31
2022-11-20T07:30:41.601Z,99483.25
2022-11-20T07:31:43.583Z,99480.66
2022-11-20T07:32:51.575Z,99486.66
2022-11-20T07:33:53.123Z,99481.50
2022-11-20T07:34:54.795Z,99485.75
2022-11-20T07:35:57.570Z,99468.94
2022-11-20T07:36:59.174Z,99480.66
2022-11-20T07:38:00.882Z,99473.69
2022-11-20T07:39:02.610Z,99481.47
2022-11-20T07:40:04.583Z,99485.75
2022-11-20T07:41:06.176Z,99483.97
2022-11-20T07:42:08.675Z,99478.75
2022-11-20T07:43:10.375Z,99483.16
2022-11-20T07:44:11.920Z,99472.69
2022-11-20T07:45:13.676Z,99486.31
2022-11-20T07:46:15.313Z,99492.41
2022-11-20T07:47:17.017Z,99477.72
2022-11-20T07:48:18.847Z,99486.47
2022-11-20T07:49:20.713Z,99478.59
2022-11-20T07:50:22.641Z,99486.31
2022-11-20T07:51:24.281Z,99481.97
2022-11-20T07:52:25.836Z,99486.41
2022-11-20T07:53:27.441Z,99488.16
2022-11-20T07:54:29.303Z,99490.66
2022-11-20T07:55:31.605Z,99486.31
2022-11-20T07:56:33.204Z,99496.72
2022-11-20T07:57:34.979Z,99481.91
2022-11-20T07:58:36.747Z,99502.75
2022-11-20T07:59:39.895Z,99498.44
2022-11-20T08:00:42.373Z,99494.06
2022-11-20T08:01:44.169Z,99494.97
2022-11-20T08:02:45.745Z,99491.38
2022-11-20T08:03:47.330Z,99496.63
2022-11-20T08:04:49.094Z,99503.47
2022-11-20T08:05:50.786Z,99500.91
2022-11-20T08:06:55.445Z,99496.66
2022-11-20T08:07:57.078Z,99499.31
2022-11-20T08:08:58.955Z,99501.06
2022-11-20T08:10:00.502Z,99503.66
2022-11-20T08:11:20.770Z,99508.06
2022-11-20T08:12:41.087Z,99504.56
2022-11-20T08:14:01.098Z,99502.78
2022-11-20T08:15:02.860Z,99510.44
2022-11-20T08:16:04.786Z,99513.00
2022-11-20T08:17:06.406Z,99510.56
2022-11-20T08:19:34.376Z,99514.84
2022-11-20T08:20:36.467Z,99513.16
2022-11-20T08:21:38.697Z,99514.03
2022-11-20T08:22:40.348Z,99518.38
2022-11-20T08:23:42.016Z,99532.22
2022-11-20T08:24:43.580Z,99517.50
2022-11-20T08:25:50.707Z,99526.09
2022-11-20T08:26:52.390Z,99519.94
2022-11-20T08:27:59.293Z,99518.91
2022-11-20T08:29:01.829Z,99525.72
2022-11-20T08:30:03.586Z,99525.66
2022-11-20T08:31:05.463Z,99517.91
2022-11-20T08:32:07.070Z,99526.44
2022-11-20T08:33:10.098Z,99528.22
2022-11-20T08:34:16.204Z,99529.84
2022-11-20T08:35:21.353Z,99527.31
2022-11-20T08:36:23.984Z,99525.47
2022-11-20T08:37:25.727Z,99534.88
2022-11-20T08:38:27.331Z,99528.00
2022-11-20T08:39:29.052Z,99530.66
2022-11-20T08:40:31.875Z,99534.00
2022-11-20T08:41:34.267Z,99523.66
2022-11-20T08:42:35.986Z,99528.81
2022-11-20T08:43:37.819Z,99515.97
2022-11-20T08:44:39.571Z,99531.34
2022-11-20T08:45:41.331Z,99542.53
2022-11-20T08:46:44.639Z,99536.53
2022-11-20T08:47:46.492Z,99521.06
2022-11-20T08:48:48.168Z,99530.66
2022-11-20T08:49:49.769Z,99535.97
2022-11-20T08:50:51.367Z,99537.56
2022-11-20T08:51:54.695Z,99543.66
2022-11-20T08:52:56.440Z,99544.56
2022-11-20T08:53:58.331Z,99535.75
2022-11-20T08:54:59.933Z,99535.75
2022-11-20T08:56:01.667Z,99534.88
2022-11-20T08:57:03.233Z,99535.03
2022-11-20T08:58:05.836Z,99544.50
2022-11-20T08:59:23.408Z,99541.06
2022-11-20T09:00:29.043Z,99549.69
2022-11-20T09:01:30.810Z,99547.88
2022-11-20T09:02:33.319Z,99538.34
2022-11-20T09:03:35.235Z,99548.44
2022-11-20T09:04:36.849Z,99541.44
2022-11-20T09:05:38.391Z,99547.72
2022-11-20T09:06:39.908Z,99540.66
2022-11-20T09:07:42.267Z,99542.44
2022-11-20T09:08:44.032Z,99552.84
2022-11-20T09:09:46.433Z,99546.91
2022-11-20T09:10:53.025Z,99557.25
2022-11-20T09:11:54.655Z,99537.09
2022-11-20T09:12:56.986Z,99544.91
2022-11-20T09:13:58.628Z,99543.16
2022-11-20T09:15:00.240Z,99556.00
2022-11-20T09:16:07.738Z,99546.56
2022-11-20T09:17:13.388Z,99544.16
2022-11-20T09:18:14.950Z,99554.59
2022-11-20T09:20:38.335Z,99553.78
2022-11-20T09:21:39.948Z,99559.06
2022-11-20T09:22:41.858Z,99563.41
2022-11-20T09:23:43.407Z,99558.13
2022-11-20T09:24:45.021Z,99554.75
2022-11-20T09:25:46.600Z,99563.56
2022-11-20T09:26:48.248Z,99555.84
2022-11-20T09:27:59.391Z,99559.28
2022-11-20T09:29:00.931Z,99576.59
2022-11-20T09:30:03.409Z,99568.81
2022-11-20T09:31:09.514Z,99565.19
2022-11-20T09:32:11.106Z,99561.72
2022-11-20T09:33:12.737Z,99557.56
2022-11-20T09:34:14.424Z,99559.16
2022-11-20T09:35:16.351Z,99562.69
2022-11-20T09:36:19.500Z,99563.41
2022-11-20T09:37:21.138Z,99571.13
2022-11-20T09:38:22.773Z,99554.72
2022-11-20T09:39:24.683Z,99565.13
2022-11-20T09:40:30.459Z,99565.00
2022-11-20T09:42:00.279Z,99562.44
2022-11-20T09:43:04.552Z,99571.13
2022-11-20T09:44:17.958Z,99564.06
2022-11-20T09:45:31.478Z,99569.25
2022-11-20T09:46:46.215Z,99570.97
2022-11-20T09:48:12.698Z,99568.44
2022-11-20T09:49:31.953Z,99568.44
2022-11-20T09:50:42.177Z,99567.56
2022-11-20T09:52:10.722Z,99576.09
2022-11-20T09:53:28.111Z,99562.25
2022-11-20T09:54:41.613Z,99577.84
2022-11-20T09:55:43.576Z,99569.09
2022-11-20T09:56:54.456Z,99581.13
2022-11-20T09:57:57.266Z,99572.34
2022-11-20T09:59:03.129Z,99577.75
2022-11-20T10:00:07.468Z,99575.88
2022-11-20T10:01:20.201Z,99574.06
2022-11-20T10:02:28.008Z,99580.03
2022-11-20T10:03:47.080Z,99574.72
2022-11-20T10:04:56.487Z,99581.97
2022-11-20T10:06:01.472Z,99577.63
2022-11-20T10:07:32.547Z,99566.31
2022-11-20T10:08:46.016Z,99575.22
2022-11-20T10:09:55.928Z,99572.06
2022-11-20T10:11:12.321Z,99564.13
2022-11-20T10:12:22.883Z,99574.66
2022-11-20T10:13:37.511Z,99582.09
2022-11-20T10:14:48.420Z,99580.63
2022-11-20T10:16:15.310Z,99589.34
2022-11-20T10:17:44.832Z,99583.22
2022-11-20T10:18:58.415Z,99590.38
2022-11-20T10:20:24.487Z,99582.28
2022-11-20T10:21:50.840Z,99584.25
2022-11-20T10:23:04.426Z,99589.63
2022-11-20T10:24:09.312Z,99589.09
2022-11-20T10:25:21.388Z,99586.59
2022-11-20T10:26:35.291Z,99586.44
2022-11-20T10:28:00.019Z,99585.47
2022-11-20T10:29:12.230Z,99588.00
2022-11-20T10:30:16.782Z,99579.16
2022-11-20T10:31:35.764Z,99575.78
2022-11-20T10:32:47.425Z,99583.75
2022-11-20T10:34:11.722Z,99575.69
2022-11-20T10:35:34.642Z,99584.47
2022-11-20T10:36:44.060Z,99581.63
2022-11-20T10:37:50.227Z,99577.16
2022-11-20T10:39:12.405Z,99566.91
2022-11-20T10:40:32.350Z,99569.88
2022-11-20T10:41:41.123Z,99568.94
2022-11-20T10:42:48.119Z,99561.78
2022-11-20T10:43:58.014Z,99568.53
2022-11-20T10:45:16.515Z,99570.25
2022-11-20T10:46:23.102Z,99568.59
2022-11-20T10:47:26.533Z,99556.84
2022-11-20T10:48:29.760Z,99558.88
2022-11-20T10:49:33.166Z,99559.84
2022-11-20T10:50:38.652Z,99553.81
2022-11-20T10:52:03.884Z,99561.25
2022-11-20T10:53:17.670Z,99550.38
2022-11-20T10:54:44.537Z,99549.94
2022-11-20T10:55:51.935Z,99550.94
2022-11-20T10:56:57.770Z,99543.72
2022-11-20T10:58:08.120Z,99541.94
2022-11-20T10:59:27.647Z,99539.53
2022-11-20T11:00:32.444Z,99529.34
2022-11-20T11:01:42.728Z,99515.97
2022-11-20T11:02:52.229Z,99536.94
2022-11-20T11:03:56.051Z,99523.94
2022-11-20T11:04:58.744Z,99525.81
2022-11-20T11:06:14.024Z,99525.09
2022-11-20T11:07:36.983Z,99516.13
2022-11-20T11:08:40.496Z,99519.78
2022-11-20T11:09:48.626Z,99519.69
2022-11-20T11:10:56.158Z,99517.41
2022-11-20T11:12:00.745Z,99511.66
2022-11-20T11:13:05.905Z,99518.81
2022-11-20T11:14:16.246Z,99516.97
2022-11-20T11:15:40.778Z,99514.50
2022-11-20T11:16:59.170Z,99512.16
2022-11-20T11:18:00.738Z,99509.53
2022-11-20T11:19:14.213Z,99507.88
2022-11-20T11:20:27.076Z,99516.38
2022-11-20T11:21:28.854Z,99502.47
2022-11-20T11:22:33.725Z,99517.56
2022-11-20T11:23:38.688Z,99509.53
2022-11-20T11:24:53.002Z,99500.31
2022-11-20T11:25:59.746Z,99501.47
2022-11-20T11:27:10.111Z,99501.69
2022-11-20T11:28:25.901Z,99494.75
2022-11-20T11:29:30.480Z,99501.53
2022-11-20T11:30:44.414Z,99484.19
2022-11-20T11:31:46.139Z,99486.88
2022-11-20T11:32:48.307Z,99493.88
2022-11-20T11:33:49.960Z,99480.53
2022-11-20T11:35:19.386Z,99489.94
2022-11-20T11:36:26.045Z,99490.38
2022-11-20T11:37:35.891Z,99492.69
2022-11-20T11:38:46.348Z,99483.97
2022-11-20T11:39:55.159Z,99485.72
2022-11-20T11:41:10.085Z,99495.56
2022-11-20T11:42:17.664Z,99480.81
2022-11-20T11:43:44.497Z,99476.97
2022-11-20T11:45:06.777Z,99484.47
2022-11-20T11:46:28.321Z,99467.66
2022-11-20T11:47:46.915Z,99475.53
2022-11-20T11:49:12.766Z,99473.13
2022-11-20T11:50:16.896Z,99464.13
2022-11-20T11:51:21.743Z,99465.78
2022-11-20T11:52:25.283Z,99464.59
2022-11-20T11:53:28.650Z,99469.84
2022-11-20T11:54:46.496Z,99469.31
2022-11-20T11:56:11.831Z,99464.00
2022-11-20T11:57:21.943Z,99464.03
2022-11-20T11:58:49.351Z,99459.28
2022-11-20T12:00:03.760Z,99451.75
2022-11-20T12:01:16.475Z,99450.69
2022-11-20T12:02:39.616Z,99459.94
2022-11-20T12:03:54.602Z,99455.88
2022-11-20T12:05:03.367Z,99463.22
2022-11-20T12:06:13.227Z,99455.66
2022-11-20T12:07:51.357Z,99457.16
2022-11-20T12:09:06.716Z,99448.94
2022-11-20T12:10:23.860Z,99448.56
2022-11-20T12:11:36.127Z,99445.41
2022-11-20T12:12:43.159Z,99450.38
2022-11-20T12:13:53.599Z,99440.41
2022-11-20T12:14:57.430Z,99435.44
2022-11-20T12:15:59.502Z,99447.94
2022-11-20T12:17:02.859Z,99454.13
2022-11-20T12:18:15.580Z,99465.38
2022-11-20T12:19:17.525Z,99457.94
2022-11-20T12:20:22.727Z,99452.41
2022-11-20T12:21:24.336Z,99452.28
2022-11-20T12:22:41.993Z,99450.03
2022-11-20T12:23:43.579Z,99446.41
2022-11-20T12:25:22.415Z,99450.34
2022-11-20T12:26:46.741Z,99450.06
2022-11-20T12:27:57.503Z,99448.47
2022-11-20T12:29:04.923Z,99448.59
2022-11-20T12:30:09.615Z,99450.34
2022-11-20T12:31:29.664Z,99460.03
2022-11-20T12:32:37.375Z,99462.34
2022-11-20T12:33:54.287Z,99459.47
2022-11-20T12:35:01.835Z,99456.53
2022-11-20T12:36:09.563Z,99457.25
2022-11-20T12:37:30.081Z,99468.28
2022-11-20T12:38:43.668Z,99438.53
2022-11-20T12:39:51.685Z,99445.63
2022-11-20T12:41:14.840Z,99441.38
2022-11-20T12:42:41.107Z,99439.41
2022-11-20T12:44:33.750Z,99441.00
2022-11-20T12:45:55.460Z,99440.78
2022-11-20T12:47:35.451Z,99441.16
2022-11-20T12:49:22.095Z,99449.28
2022-11-20T12:51:00.339Z,99450.50
2022-11-20T12:52:33.441Z,99450.00